sensor_id;sensor_type;location;lat;lon;timestamp;temperature;humidity
44705;DHT22;30431;48.520;9.046;2022-11-27T00:01:32;2.00;99.90
44705;DHT22;30431;48.520;9.046;2022-11-27T00:04:00;1.90;99.90
44705;DHT22;30431;48.520;9.046;2022-11-27T00:06:28;2.00;99.90
44705;DHT22;30431;48.520;9.046;2022-11-27T00:09:00;2.00;99.90
44705;DHT22;30431;48.520;9.046;2022-11-27T00:11:30;2.10;99.90
44705;DHT22;30431;48.520;9.046;2022-11-27T00:14:00;2.00;99.90
44705;DHT22;30431;48.520;9.046;2022-11-27T00:16:30;2.10;99.90
44705;DHT22;30431;48.520;9.046;2022-11-27T00:18:58;2.10;99.90
44705;DHT22;30431;48.520;9.046;2022-11-27T00:21:32;2.00;99.90
44705;DHT22;30431;48.520;9.046;2022-11-27T00:24:03;2.10;99.90
44705;DHT22;30431;48.520;9.046;2022-11-27T00:26:31;2.00;99.90
44705;DHT22;30431;48.520;9.046;2022-11-27T00:29:04;1.90;99.90
44705;DHT22;30431;48.520;9.046;2022-11-27T00:31:32;2.00;99.90
44705;DHT22;30431;48.520;9.046;2022-11-27T00:34:01;1.90;99.90
44705;DHT22;30431;48.520;9.046;2022-11-27T00:36:31;1.80;99.90
44705;DHT22;30431;48.520;9.046;2022-11-27T00:38:59;1.80;99.90
44705;DHT22;30431;48.520;9.046;2022-11-27T00:41:27;1.70;99.90
44705;DHT22;30431;48.520;9.046;2022-11-27T00:43:58;1.60;99.90
44705;DHT22;30431;48.520;9.046;2022-11-27T00:46:29;1.70;99.90
44705;DHT22;30431;48.520;9.046;2022-11-27T00:48:58;1.80;99.90
44705;DHT22;30431;48.520;9.046;2022-11-27T00:51:27;2.00;99.90
44705;DHT22;30431;48.520;9.046;2022-11-27T00:53:54;1.80;99.90
44705;DHT22;30431;48.520;9.046;2022-11-27T00:56:29;1.90;99.90
44705;DHT22;30431;48.520;9.046;2022-11-27T00:58:59;1.90;99.90
44705;DHT22;30431;48.520;9.046;2022-11-27T01:01:32;1.90;99.90
44705;DHT22;30431;48.520;9.046;2022-11-27T01:04:01;1.70;99.90
44705;DHT22;30431;48.520;9.046;2022-11-27T01:06:29;1.70;99.90
44705;DHT22;30431;48.520;9.046;2022-11-27T01:09:02;1.60;99.90
44705;DHT22;30431;48.520;9.046;2022-11-27T01:11:33;1.70;99.90
44705;DHT22;30431;48.520;9.046;2022-11-27T01:14:15;1.70;99.90
44705;DHT22;30431;48.520;9.046;2022-11-27T01:16:45;1.70;99.90
44705;DHT22;30431;48.520;9.046;2022-11-27T01:19:12;1.70;99.90
44705;DHT22;30431;48.520;9.046;2022-11-27T01:21:42;1.80;99.90
44705;DHT22;30431;48.520;9.046;2022-11-27T01:24:11;1.70;99.90
44705;DHT22;30431;48.520;9.046;2022-11-27T01:26:39;1.70;99.90
44705;DHT22;30431;48.520;9.046;2022-11-27T01:29:06;1.60;99.90
44705;DHT22;30431;48.520;9.046;2022-11-27T01:31:33;1.50;99.90
44705;DHT22;30431;48.520;9.046;2022-11-27T01:34:07;1.50;99.90
44705;DHT22;30431;48.520;9.046;2022-11-27T01:36:37;1.50;99.90
44705;DHT22;30431;48.520;9.046;2022-11-27T01:39:04;1.60;99.90
44705;DHT22;30431;48.520;9.046;2022-11-27T01:41:36;1.70;99.90
44705;DHT22;30431;48.520;9.046;2022-11-27T01:54:38;1.80;99.90
44705;DHT22;30431;48.520;9.046;2022-11-27T01:57:14;1.60;99.90
44705;DHT22;30431;48.520;9.046;2022-11-27T01:59:45;1.70;99.90
44705;DHT22;30431;48.520;9.046;2022-11-27T02:02:16;1.80;99.90
44705;DHT22;30431;48.520;9.046;2022-11-27T02:04:43;1.70;99.90
44705;DHT22;30431;48.520;9.046;2022-11-27T02:07:10;1.60;99.90
44705;DHT22;30431;48.520;9.046;2022-11-27T02:09:39;1.60;99.90
44705;DHT22;30431;48.520;9.046;2022-11-27T02:12:14;1.70;99.90
44705;DHT22;30431;48.520;9.046;2022-11-27T02:14:47;1.70;99.90
44705;DHT22;30431;48.520;9.046;2022-11-27T02:17:32;1.70;99.90
44705;DHT22;30431;48.520;9.046;2022-11-27T02:31:02;1.70;99.90
44705;DHT22;30431;48.520;9.046;2022-11-27T02:33:31;1.60;99.90
44705;DHT22;30431;48.520;9.046;2022-11-27T02:36:06;1.60;99.90
44705;DHT22;30431;48.520;9.046;2022-11-27T02:38:41;1.70;99.90
44705;DHT22;30431;48.520;9.046;2022-11-27T02:41:20;1.60;99.90
44705;DHT22;30431;48.520;9.046;2022-11-27T02:43:52;1.60;99.90
44705;DHT22;30431;48.520;9.046;2022-11-27T02:46:23;1.60;99.90
44705;DHT22;30431;48.520;9.046;2022-11-27T02:48:57;1.60;99.90
44705;DHT22;30431;48.520;9.046;2022-11-27T02:51:38;1.70;99.90
44705;DHT22;30431;48.520;9.046;2022-11-27T02:54:11;1.70;99.90
44705;DHT22;30431;48.520;9.046;2022-11-27T02:56:40;1.60;99.90
44705;DHT22;30431;48.520;9.046;2022-11-27T02:59:10;1.60;99.90
44705;DHT22;30431;48.520;9.046;2022-11-27T03:01:44;1.70;99.90
44705;DHT22;30431;48.520;9.046;2022-11-27T03:04:18;1.80;99.90
44705;DHT22;30431;48.520;9.046;2022-11-27T03:06:53;1.80;99.90
44705;DHT22;30431;48.520;9.046;2022-11-27T03:09:38;1.80;99.90
44705;DHT22;30431;48.520;9.046;2022-11-27T03:12:07;1.80;99.90
44705;DHT22;30431;48.520;9.046;2022-11-27T03:14:39;1.80;99.90
44705;DHT22;30431;48.520;9.046;2022-11-27T03:22:57;1.70;99.90
44705;DHT22;30431;48.520;9.046;2022-11-27T03:25:24;1.70;99.90
44705;DHT22;30431;48.520;9.046;2022-11-27T03:27:58;1.70;99.90
44705;DHT22;30431;48.520;9.046;2022-11-27T03:30:27;1.80;99.90
44705;DHT22;30431;48.520;9.046;2022-11-27T03:32:54;1.80;99.90
44705;DHT22;30431;48.520;9.046;2022-11-27T03:35:25;1.80;99.90
44705;DHT22;30431;48.520;9.046;2022-11-27T03:37:55;1.70;99.90
44705;DHT22;30431;48.520;9.046;2022-11-27T03:40:31;1.70;99.90
44705;DHT22;30431;48.520;9.046;2022-11-27T03:43:19;1.50;99.90
44705;DHT22;30431;48.520;9.046;2022-11-27T03:45:56;1.40;99.90
44705;DHT22;30431;48.520;9.046;2022-11-27T03:49:07;1.50;99.90
44705;DHT22;30431;48.520;9.046;2022-11-27T03:51:46;1.40;99.90
44705;DHT22;30431;48.520;9.046;2022-11-27T03:59:20;1.30;99.90
44705;DHT22;30431;48.520;9.046;2022-11-27T04:01:51;1.20;99.90
44705;DHT22;30431;48.520;9.046;2022-11-27T04:04:21;1.10;99.90
44705;DHT22;30431;48.520;9.046;2022-11-27T04:06:48;1.10;99.90
44705;DHT22;30431;48.520;9.046;2022-11-27T04:09:17;1.20;99.90
44705;DHT22;30431;48.520;9.046;2022-11-27T04:11:44;1.40;99.90
44705;DHT22;30431;48.520;9.046;2022-11-27T04:14:13;1.40;99.90
44705;DHT22;30431;48.520;9.046;2022-11-27T04:16:40;1.20;99.90
44705;DHT22;30431;48.520;9.046;2022-11-27T04:19:10;1.20;99.90
44705;DHT22;30431;48.520;9.046;2022-11-27T04:21:37;1.20;99.90
44705;DHT22;30431;48.520;9.046;2022-11-27T04:24:04;1.20;99.90
44705;DHT22;30431;48.520;9.046;2022-11-27T04:26:31;1.20;99.90
44705;DHT22;30431;48.520;9.046;2022-11-27T04:28:58;1.20;99.90
44705;DHT22;30431;48.520;9.046;2022-11-27T04:31:25;1.10;99.90
44705;DHT22;30431;48.520;9.046;2022-11-27T04:33:54;1.00;99.90
44705;DHT22;30431;48.520;9.046;2022-11-27T04:36:23;1.00;99.90
44705;DHT22;30431;48.520;9.046;2022-11-27T04:38:50;1.00;99.90
44705;DHT22;30431;48.520;9.046;2022-11-27T04:41:17;0.90;99.90
44705;DHT22;30431;48.520;9.046;2022-11-27T04:43:44;0.90;99.90
44705;DHT22;30431;48.520;9.046;2022-11-27T04:46:14;0.60;99.90
44705;DHT22;30431;48.520;9.046;2022-11-27T04:48:41;0.70;99.90
44705;DHT22;30431;48.520;9.046;2022-11-27T04:51:07;0.70;99.90
44705;DHT22;30431;48.520;9.046;2022-11-27T04:53:34;0.70;99.90
44705;DHT22;30431;48.520;9.046;2022-11-27T04:56:02;0.90;99.90
44705;DHT22;30431;48.520;9.046;2022-11-27T04:58:31;0.80;99.90
44705;DHT22;30431;48.520;9.046;2022-11-27T05:01:00;0.70;99.90
44705;DHT22;30431;48.520;9.046;2022-11-27T05:03:30;0.80;99.90
44705;DHT22;30431;48.520;9.046;2022-11-27T05:05:57;0.60;99.90
44705;DHT22;30431;48.520;9.046;2022-11-27T05:08:24;0.70;99.90
44705;DHT22;30431;48.520;9.046;2022-11-27T05:11:10;0.60;99.90
44705;DHT22;30431;48.520;9.046;2022-11-27T05:13:38;0.60;99.90
44705;DHT22;30431;48.520;9.046;2022-11-27T05:16:05;0.50;99.90
44705;DHT22;30431;48.520;9.046;2022-11-27T05:18:32;0.50;99.90
44705;DHT22;30431;48.520;9.046;2022-11-27T05:21:02;0.60;99.90
44705;DHT22;30431;48.520;9.046;2022-11-27T05:23:30;0.70;99.90
44705;DHT22;30431;48.520;9.046;2022-11-27T05:25:57;0.60;99.90
44705;DHT22;30431;48.520;9.046;2022-11-27T05:28:25;0.60;99.90
44705;DHT22;30431;48.520;9.046;2022-11-27T05:30:55;0.70;99.90
44705;DHT22;30431;48.520;9.046;2022-11-27T05:33:22;0.70;99.90
44705;DHT22;30431;48.520;9.046;2022-11-27T05:35:51;0.70;99.90
44705;DHT22;30431;48.520;9.046;2022-11-27T05:38:18;0.80;99.90
44705;DHT22;30431;48.520;9.046;2022-11-27T05:40:45;0.70;99.90
44705;DHT22;30431;48.520;9.046;2022-11-27T05:43:19;0.60;99.90
44705;DHT22;30431;48.520;9.046;2022-11-27T05:45:46;0.60;99.90
44705;DHT22;30431;48.520;9.046;2022-11-27T05:48:18;0.60;99.90
44705;DHT22;30431;48.520;9.046;2022-11-27T05:50:45;0.60;99.90
44705;DHT22;30431;48.520;9.046;2022-11-27T05:53:13;0.60;99.90
44705;DHT22;30431;48.520;9.046;2022-11-27T05:55:42;0.50;99.90
44705;DHT22;30431;48.520;9.046;2022-11-27T05:58:09;0.40;99.90
44705;DHT22;30431;48.520;9.046;2022-11-27T06:00:36;0.40;99.90
44705;DHT22;30431;48.520;9.046;2022-11-27T06:03:05;0.40;99.90
44705;DHT22;30431;48.520;9.046;2022-11-27T06:05:33;0.50;99.90
44705;DHT22;30431;48.520;9.046;2022-11-27T06:08:06;0.50;99.90
44705;DHT22;30431;48.520;9.046;2022-11-27T06:10:37;0.50;99.90
44705;DHT22;30431;48.520;9.046;2022-11-27T06:13:07;0.30;99.90
44705;DHT22;30431;48.520;9.046;2022-11-27T06:15:36;0.30;99.90
44705;DHT22;30431;48.520;9.046;2022-11-27T06:18:06;0.40;99.90
44705;DHT22;30431;48.520;9.046;2022-11-27T06:20:41;0.50;99.90
44705;DHT22;30431;48.520;9.046;2022-11-27T06:23:11;0.60;99.90
44705;DHT22;30431;48.520;9.046;2022-11-27T06:25:43;0.60;99.90
44705;DHT22;30431;48.520;9.046;2022-11-27T06:28:12;0.60;99.90
44705;DHT22;30431;48.520;9.046;2022-11-27T06:30:41;0.50;99.90
44705;DHT22;30431;48.520;9.046;2022-11-27T06:33:10;0.30;99.90
44705;DHT22;30431;48.520;9.046;2022-11-27T06:35:37;0.20;99.90
44705;DHT22;30431;48.520;9.046;2022-11-27T06:38:04;0.30;99.90
44705;DHT22;30431;48.520;9.046;2022-11-27T06:40:31;0.40;99.90
44705;DHT22;30431;48.520;9.046;2022-11-27T06:42:58;0.40;99.90
44705;DHT22;30431;48.520;9.046;2022-11-27T06:45:25;0.40;99.90
44705;DHT22;30431;48.520;9.046;2022-11-27T06:47:52;0.50;99.90
44705;DHT22;30431;48.520;9.046;2022-11-27T06:50:24;0.50;99.90
44705;DHT22;30431;48.520;9.046;2022-11-27T06:52:54;0.50;99.90
44705;DHT22;30431;48.520;9.046;2022-11-27T06:55:23;0.50;99.90
44705;DHT22;30431;48.520;9.046;2022-11-27T06:57:53;0.40;99.90
44705;DHT22;30431;48.520;9.046;2022-11-27T07:00:20;0.40;99.90
44705;DHT22;30431;48.520;9.046;2022-11-27T07:02:47;0.40;99.90
44705;DHT22;30431;48.520;9.046;2022-11-27T07:05:18;0.10;99.90
44705;DHT22;30431;48.520;9.046;2022-11-27T07:07:48;0.10;99.90
44705;DHT22;30431;48.520;9.046;2022-11-27T07:10:17;-0.10;99.90
44705;DHT22;30431;48.520;9.046;2022-11-27T07:12:46;-0.10;99.90
44705;DHT22;30431;48.520;9.046;2022-11-27T07:15:15;0.10;99.90
44705;DHT22;30431;48.520;9.046;2022-11-27T07:17:42;0.00;99.90
44705;DHT22;30431;48.520;9.046;2022-11-27T07:20:12;0.20;99.90
44705;DHT22;30431;48.520;9.046;2022-11-27T07:22:41;0.40;99.90
44705;DHT22;30431;48.520;9.046;2022-11-27T07:25:11;0.40;99.90
44705;DHT22;30431;48.520;9.046;2022-11-27T07:27:37;0.30;99.90
44705;DHT22;30431;48.520;9.046;2022-11-27T07:30:07;0.40;99.90
44705;DHT22;30431;48.520;9.046;2022-11-27T07:32:40;0.60;99.90
44705;DHT22;30431;48.520;9.046;2022-11-27T07:35:07;0.70;99.90
44705;DHT22;30431;48.520;9.046;2022-11-27T07:37:34;0.80;99.90
44705;DHT22;30431;48.520;9.046;2022-11-27T07:40:01;1.00;99.90
44705;DHT22;30431;48.520;9.046;2022-11-27T07:42:29;1.10;99.90
44705;DHT22;30431;48.520;9.046;2022-11-27T07:45:05;1.30;99.90
44705;DHT22;30431;48.520;9.046;2022-11-27T07:47:35;1.40;99.90
44705;DHT22;30431;48.520;9.046;2022-11-27T07:50:05;1.40;99.90
44705;DHT22;30431;48.520;9.046;2022-11-27T07:52:35;1.60;99.90
44705;DHT22;30431;48.520;9.046;2022-11-27T07:55:08;1.80;99.90
44705;DHT22;30431;48.520;9.046;2022-11-27T07:57:36;1.70;99.90
44705;DHT22;30431;48.520;9.046;2022-11-27T08:00:08;1.60;99.90
44705;DHT22;30431;48.520;9.046;2022-11-27T08:02:40;1.80;99.90
44705;DHT22;30431;48.520;9.046;2022-11-27T08:05:09;2.00;99.90
44705;DHT22;30431;48.520;9.046;2022-11-27T08:07:38;2.00;99.90
44705;DHT22;30431;48.520;9.046;2022-11-27T08:10:07;2.00;99.90
44705;DHT22;30431;48.520;9.046;2022-11-27T08:12:34;2.10;99.90
44705;DHT22;30431;48.520;9.046;2022-11-27T08:15:01;1.90;99.90
44705;DHT22;30431;48.520;9.046;2022-11-27T08:17:30;1.90;99.90
44705;DHT22;30431;48.520;9.046;2022-11-27T08:19:57;1.90;99.90
44705;DHT22;30431;48.520;9.046;2022-11-27T08:22:27;1.90;99.90
44705;DHT22;30431;48.520;9.046;2022-11-27T08:24:53;1.80;99.90
44705;DHT22;30431;48.520;9.046;2022-11-27T08:27:20;1.90;99.90
44705;DHT22;30431;48.520;9.046;2022-11-27T08:29:47;2.10;99.90
44705;DHT22;30431;48.520;9.046;2022-11-27T08:32:16;2.20;99.90
44705;DHT22;30431;48.520;9.046;2022-11-27T08:34:43;2.30;99.90
44705;DHT22;30431;48.520;9.046;2022-11-27T08:37:18;2.40;99.90
44705;DHT22;30431;48.520;9.046;2022-11-27T08:39:48;2.10;99.90
44705;DHT22;30431;48.520;9.046;2022-11-27T08:42:16;2.10;99.90
44705;DHT22;30431;48.520;9.046;2022-11-27T08:44:43;2.00;99.90
44705;DHT22;30431;48.520;9.046;2022-11-27T08:47:13;1.90;99.90
44705;DHT22;30431;48.520;9.046;2022-11-27T08:49:43;1.90;99.90
44705;DHT22;30431;48.520;9.046;2022-11-27T08:52:14;2.00;99.90
44705;DHT22;30431;48.520;9.046;2022-11-27T08:54:42;2.10;99.90
44705;DHT22;30431;48.520;9.046;2022-11-27T08:57:09;2.20;99.90
44705;DHT22;30431;48.520;9.046;2022-11-27T08:59:38;2.40;99.90
44705;DHT22;30431;48.520;9.046;2022-11-27T09:02:05;2.50;99.90
44705;DHT22;30431;48.520;9.046;2022-11-27T09:04:32;2.30;99.90
44705;DHT22;30431;48.520;9.046;2022-11-27T09:06:59;2.50;99.90
44705;DHT22;30431;48.520;9.046;2022-11-27T09:09:26;2.40;99.90
44705;DHT22;30431;48.520;9.046;2022-11-27T09:11:53;2.50;99.90
44705;DHT22;30431;48.520;9.046;2022-11-27T09:14:21;2.70;99.90
44705;DHT22;30431;48.520;9.046;2022-11-27T09:16:47;2.90;99.90
44705;DHT22;30431;48.520;9.046;2022-11-27T09:19:15;2.90;99.90
44705;DHT22;30431;48.520;9.046;2022-11-27T09:21:43;2.90;99.90
44705;DHT22;30431;48.520;9.046;2022-11-27T09:24:09;2.90;99.90
44705;DHT22;30431;48.520;9.046;2022-11-27T09:26:38;2.80;99.90
44705;DHT22;30431;48.520;9.046;2022-11-27T09:29:05;2.60;99.90
44705;DHT22;30431;48.520;9.046;2022-11-27T09:31:35;2.40;99.90
44705;DHT22;30431;48.520;9.046;2022-11-27T09:34:07;2.30;99.90
44705;DHT22;30431;48.520;9.046;2022-11-27T09:36:36;2.40;99.90
44705;DHT22;30431;48.520;9.046;2022-11-27T09:39:03;2.60;99.90
44705;DHT22;30431;48.520;9.046;2022-11-27T09:41:46;2.70;99.90
44705;DHT22;30431;48.520;9.046;2022-11-27T09:44:31;2.80;99.90
44705;DHT22;30431;48.520;9.046;2022-11-27T09:47:15;2.90;99.90
44705;DHT22;30431;48.520;9.046;2022-11-27T09:49:59;3.00;99.90
44705;DHT22;30431;48.520;9.046;2022-11-27T09:52:49;3.10;99.90
44705;DHT22;30431;48.520;9.046;2022-11-27T09:55:22;3.10;99.90
44705;DHT22;30431;48.520;9.046;2022-11-27T09:58:04;3.10;99.90
44705;DHT22;30431;48.520;9.046;2022-11-27T10:00:32;3.00;99.90
44705;DHT22;30431;48.520;9.046;2022-11-27T10:03:01;3.10;99.90
44705;DHT22;30431;48.520;9.046;2022-11-27T10:05:36;3.10;99.90
44705;DHT22;30431;48.520;9.046;2022-11-27T10:11:12;3.30;99.90
44705;DHT22;30431;48.520;9.046;2022-11-27T10:16:50;3.60;99.90
44705;DHT22;30431;48.520;9.046;2022-11-27T10:30:48;3.60;99.90
44705;DHT22;30431;48.520;9.046;2022-11-27T10:33:21;3.60;99.90
44705;DHT22;30431;48.520;9.046;2022-11-27T10:35:49;3.60;99.90
44705;DHT22;30431;48.520;9.046;2022-11-27T10:38:20;3.50;99.90
44705;DHT22;30431;48.520;9.046;2022-11-27T10:43:47;3.70;99.90
44705;DHT22;30431;48.520;9.046;2022-11-27T10:46:20;4.20;99.90
44705;DHT22;30431;48.520;9.046;2022-11-27T10:48:50;4.30;99.90
44705;DHT22;30431;48.520;9.046;2022-11-27T10:51:35;4.60;99.90
44705;DHT22;30431;48.520;9.046;2022-11-27T10:54:06;4.70;99.90
44705;DHT22;30431;48.520;9.046;2022-11-27T10:59:33;4.90;99.90
44705;DHT22;30431;48.520;9.046;2022-11-27T11:02:01;4.90;99.90
44705;DHT22;30431;48.520;9.046;2022-11-27T11:04:33;5.00;99.90
44705;DHT22;30431;48.520;9.046;2022-11-27T11:07:25;5.00;99.90
44705;DHT22;30431;48.520;9.046;2022-11-27T11:09:52;5.00;99.90
44705;DHT22;30431;48.520;9.046;2022-11-27T11:12:22;5.10;99.90
44705;DHT22;30431;48.520;9.046;2022-11-27T11:17:21;4.90;99.90
44705;DHT22;30431;48.520;9.046;2022-11-27T11:19:50;4.90;99.90
44705;DHT22;30431;48.520;9.046;2022-11-27T11:22:19;5.00;99.90
44705;DHT22;30431;48.520;9.046;2022-11-27T11:24:48;5.00;99.90
44705;DHT22;30431;48.520;9.046;2022-11-27T11:27:20;5.10;99.90
44705;DHT22;30431;48.520;9.046;2022-11-27T11:29:50;5.50;99.90
44705;DHT22;30431;48.520;9.046;2022-11-27T11:32:33;5.70;99.90
44705;DHT22;30431;48.520;9.046;2022-11-27T11:35:07;6.00;99.90
44705;DHT22;30431;48.520;9.046;2022-11-27T11:37:40;6.20;99.90
44705;DHT22;30431;48.520;9.046;2022-11-27T11:40:27;6.40;99.90
44705;DHT22;30431;48.520;9.046;2022-11-27T11:42:58;6.60;99.90
44705;DHT22;30431;48.520;9.046;2022-11-27T11:45:30;6.80;99.90
44705;DHT22;30431;48.520;9.046;2022-11-27T11:48:14;6.80;99.90
44705;DHT22;30431;48.520;9.046;2022-11-27T11:50:52;6.90;99.90
44705;DHT22;30431;48.520;9.046;2022-11-27T11:53:34;6.80;99.90
44705;DHT22;30431;48.520;9.046;2022-11-27T12:02:06;6.70;99.90
44705;DHT22;30431;48.520;9.046;2022-11-27T12:10:27;6.60;99.90
44705;DHT22;30431;48.520;9.046;2022-11-27T12:15:48;6.80;99.90
44705;DHT22;30431;48.520;9.046;2022-11-27T12:40:46;7.10;99.90
44705;DHT22;30431;48.520;9.046;2022-11-27T12:46:16;7.10;99.90
44705;DHT22;30431;48.520;9.046;2022-11-27T12:49:11;7.10;99.90
44705;DHT22;30431;48.520;9.046;2022-11-27T12:54:29;7.50;99.90
44705;DHT22;30431;48.520;9.046;2022-11-27T12:57:07;7.60;99.90
44705;DHT22;30431;48.520;9.046;2022-11-27T13:00:03;7.70;99.90
44705;DHT22;30431;48.520;9.046;2022-11-27T13:05:27;7.80;99.90
44705;DHT22;30431;48.520;9.046;2022-11-27T13:08:08;7.80;99.90
44705;DHT22;30431;48.520;9.046;2022-11-27T13:16:12;7.70;99.90
44705;DHT22;30431;48.520;9.046;2022-11-27T13:21:25;8.00;99.90
44705;DHT22;30431;48.520;9.046;2022-11-27T13:23:53;8.00;99.90
44705;DHT22;30431;48.520;9.046;2022-11-27T13:26:21;8.10;99.90
44705;DHT22;30431;48.520;9.046;2022-11-27T13:28:56;8.00;99.90
44705;DHT22;30431;48.520;9.046;2022-11-27T13:31:29;7.90;99.90
44705;DHT22;30431;48.520;9.046;2022-11-27T13:34:15;7.60;99.90
44705;DHT22;30431;48.520;9.046;2022-11-27T13:36:46;7.50;99.90
44705;DHT22;30431;48.520;9.046;2022-11-27T13:39:40;7.50;99.90
44705;DHT22;30431;48.520;9.046;2022-11-27T13:42:18;7.50;99.90
44705;DHT22;30431;48.520;9.046;2022-11-27T13:45:07;7.50;99.90
44705;DHT22;30431;48.520;9.046;2022-11-27T13:47:39;7.60;99.90
44705;DHT22;30431;48.520;9.046;2022-11-27T13:50:13;7.70;99.90
44705;DHT22;30431;48.520;9.046;2022-11-27T13:53:01;7.80;99.90
44705;DHT22;30431;48.520;9.046;2022-11-27T13:55:38;7.90;99.90
44705;DHT22;30431;48.520;9.046;2022-11-27T13:58:06;7.90;99.90
44705;DHT22;30431;48.520;9.046;2022-11-27T14:03:04;8.00;99.90
44705;DHT22;30431;48.520;9.046;2022-11-27T14:05:40;7.90;99.90
44705;DHT22;30431;48.520;9.046;2022-11-27T14:08:31;7.80;99.90
44705;DHT22;30431;48.520;9.046;2022-11-27T14:11:10;7.90;99.90
44705;DHT22;30431;48.520;9.046;2022-11-27T14:13:45;7.90;99.90
44705;DHT22;30431;48.520;9.046;2022-11-27T14:16:29;7.80;99.90
44705;DHT22;30431;48.520;9.046;2022-11-27T14:19:00;7.80;99.90
44705;DHT22;30431;48.520;9.046;2022-11-27T14:24:36;7.80;99.90
44705;DHT22;30431;48.520;9.046;2022-11-27T14:27:22;7.70;99.90
44705;DHT22;30431;48.520;9.046;2022-11-27T14:29:50;7.70;99.90
44705;DHT22;30431;48.520;9.046;2022-11-27T14:32:19;7.60;99.90
44705;DHT22;30431;48.520;9.046;2022-11-27T14:34:49;7.60;99.90
44705;DHT22;30431;48.520;9.046;2022-11-27T14:37:25;7.60;99.90
44705;DHT22;30431;48.520;9.046;2022-11-27T14:39:53;7.60;99.90
44705;DHT22;30431;48.520;9.046;2022-11-27T14:45:03;7.50;99.90
44705;DHT22;30431;48.520;9.046;2022-11-27T14:47:31;7.40;99.90
44705;DHT22;30431;48.520;9.046;2022-11-27T14:49:59;7.40;99.90
44705;DHT22;30431;48.520;9.046;2022-11-27T14:52:27;7.50;99.90
44705;DHT22;30431;48.520;9.046;2022-11-27T14:54:54;7.40;99.90
44705;DHT22;30431;48.520;9.046;2022-11-27T14:57:29;7.30;99.90
44705;DHT22;30431;48.520;9.046;2022-11-27T15:00:20;7.20;99.90
44705;DHT22;30431;48.520;9.046;2022-11-27T15:02:50;7.20;99.90
44705;DHT22;30431;48.520;9.046;2022-11-27T15:05:23;7.20;99.90
44705;DHT22;30431;48.520;9.046;2022-11-27T15:07:56;7.10;99.90
44705;DHT22;30431;48.520;9.046;2022-11-27T15:12:55;7.00;99.90
44705;DHT22;30431;48.520;9.046;2022-11-27T15:15:25;6.90;99.90
44705;DHT22;30431;48.520;9.046;2022-11-27T15:17:59;6.90;99.90
44705;DHT22;30431;48.520;9.046;2022-11-27T15:20:38;6.80;99.90
44705;DHT22;30431;48.520;9.046;2022-11-27T15:23:20;6.70;99.90
44705;DHT22;30431;48.520;9.046;2022-11-27T15:26:11;6.60;99.90
44705;DHT22;30431;48.520;9.046;2022-11-27T15:28:52;6.60;99.90
44705;DHT22;30431;48.520;9.046;2022-11-27T15:31:35;6.60;99.90
44705;DHT22;30431;48.520;9.046;2022-11-27T15:36:43;6.60;99.90
44705;DHT22;30431;48.520;9.046;2022-11-27T15:41:57;6.60;99.90
44705;DHT22;30431;48.520;9.046;2022-11-27T15:44:27;6.60;99.90
44705;DHT22;30431;48.520;9.046;2022-11-27T15:46:56;6.50;99.90
44705;DHT22;30431;48.520;9.046;2022-11-27T15:49:26;6.40;99.90
44705;DHT22;30431;48.520;9.046;2022-11-27T15:51:55;6.40;99.90
44705;DHT22;30431;48.520;9.046;2022-11-27T15:54:25;6.30;99.90
44705;DHT22;30431;48.520;9.046;2022-11-27T15:56:55;6.20;99.90
44705;DHT22;30431;48.520;9.046;2022-11-27T15:59:23;6.20;99.90
44705;DHT22;30431;48.520;9.046;2022-11-27T16:01:50;6.10;99.90
44705;DHT22;30431;48.520;9.046;2022-11-27T16:04:17;6.10;99.90
44705;DHT22;30431;48.520;9.046;2022-11-27T16:06:47;6.00;99.90
44705;DHT22;30431;48.520;9.046;2022-11-27T16:09:14;6.00;99.90
44705;DHT22;30431;48.520;9.046;2022-11-27T16:11:41;6.00;99.90
44705;DHT22;30431;48.520;9.046;2022-11-27T16:14:08;6.00;99.90
44705;DHT22;30431;48.520;9.046;2022-11-27T16:16:38;6.00;99.90
44705;DHT22;30431;48.520;9.046;2022-11-27T16:19:08;5.90;99.90
44705;DHT22;30431;48.520;9.046;2022-11-27T16:21:38;5.90;99.90
44705;DHT22;30431;48.520;9.046;2022-11-27T16:24:06;5.90;99.90
44705;DHT22;30431;48.520;9.046;2022-11-27T16:26:36;6.00;99.90
44705;DHT22;30431;48.520;9.046;2022-11-27T16:29:04;6.00;99.90
44705;DHT22;30431;48.520;9.046;2022-11-27T16:31:34;6.00;99.90
44705;DHT22;30431;48.520;9.046;2022-11-27T16:34:01;6.00;99.90
44705;DHT22;30431;48.520;9.046;2022-11-27T16:36:31;6.00;99.90
44705;DHT22;30431;48.520;9.046;2022-11-27T16:38:58;6.10;99.90
44705;DHT22;30431;48.520;9.046;2022-11-27T16:41:28;6.10;99.90
44705;DHT22;30431;48.520;9.046;2022-11-27T16:43:56;6.10;99.90
44705;DHT22;30431;48.520;9.046;2022-11-27T16:46:26;6.20;99.90
44705;DHT22;30431;48.520;9.046;2022-11-27T16:48:57;6.20;99.90
44705;DHT22;30431;48.520;9.046;2022-11-27T16:51:29;6.20;99.90
44705;DHT22;30431;48.520;9.046;2022-11-27T16:54:01;6.20;99.90
44705;DHT22;30431;48.520;9.046;2022-11-27T16:56:32;6.20;99.90
44705;DHT22;30431;48.520;9.046;2022-11-27T16:59:06;6.00;99.90
44705;DHT22;30431;48.520;9.046;2022-11-27T17:01:37;6.00;99.90
44705;DHT22;30431;48.520;9.046;2022-11-27T17:04:07;5.90;99.90
44705;DHT22;30431;48.520;9.046;2022-11-27T17:06:37;5.90;99.90
44705;DHT22;30431;48.520;9.046;2022-11-27T17:09:06;5.90;99.90
44705;DHT22;30431;48.520;9.046;2022-11-27T17:11:35;5.90;99.90
44705;DHT22;30431;48.520;9.046;2022-11-27T17:14:05;5.90;99.90
44705;DHT22;30431;48.520;9.046;2022-11-27T17:16:33;5.90;99.90
44705;DHT22;30431;48.520;9.046;2022-11-27T17:19:02;5.90;99.90
44705;DHT22;30431;48.520;9.046;2022-11-27T17:21:33;5.90;99.90
44705;DHT22;30431;48.520;9.046;2022-11-27T17:24:05;5.90;99.90
44705;DHT22;30431;48.520;9.046;2022-11-27T17:26:42;5.90;99.90
44705;DHT22;30431;48.520;9.046;2022-11-27T17:29:15;5.90;99.90
44705;DHT22;30431;48.520;9.046;2022-11-27T17:31:43;5.90;99.90
44705;DHT22;30431;48.520;9.046;2022-11-27T17:34:14;5.90;99.90
44705;DHT22;30431;48.520;9.046;2022-11-27T17:36:43;5.90;99.90
44705;DHT22;30431;48.520;9.046;2022-11-27T17:39:12;6.00;99.90
44705;DHT22;30431;48.520;9.046;2022-11-27T17:41:42;6.00;99.90
44705;DHT22;30431;48.520;9.046;2022-11-27T17:44:11;6.00;99.90
44705;DHT22;30431;48.520;9.046;2022-11-27T17:46:39;6.00;99.90
44705;DHT22;30431;48.520;9.046;2022-11-27T17:49:07;5.80;99.90
44705;DHT22;30431;48.520;9.046;2022-11-27T17:51:34;5.70;99.90
44705;DHT22;30431;48.520;9.046;2022-11-27T17:54:05;5.60;99.90
44705;DHT22;30431;48.520;9.046;2022-11-27T17:56:33;5.50;99.90
44705;DHT22;30431;48.520;9.046;2022-11-27T17:59:01;5.40;99.90
44705;DHT22;30431;48.520;9.046;2022-11-27T18:01:29;5.50;99.90
44705;DHT22;30431;48.520;9.046;2022-11-27T18:04:00;5.50;99.90
44705;DHT22;30431;48.520;9.046;2022-11-27T18:06:30;5.60;99.90
44705;DHT22;30431;48.520;9.046;2022-11-27T18:09:02;5.60;99.90
44705;DHT22;30431;48.520;9.046;2022-11-27T18:11:31;5.50;99.90
44705;DHT22;30431;48.520;9.046;2022-11-27T18:14:02;5.40;99.90
44705;DHT22;30431;48.520;9.046;2022-11-27T18:16:38;5.40;99.90
44705;DHT22;30431;48.520;9.046;2022-11-27T18:19:09;5.40;99.90